Time;durP1;ratioP1;P1;durP2;ratioP2;P2;SDS_P1;SDS_P2;PMS_P1;PMS_P2;Temp;Humidity;BMP_temperature;BMP_pressure;BME280_temperature;BME280_humidity;BME280_pressure;Samples;Min_cycle;Max_cycle;Signal;HPM_P1;HPM_P2
2022/11/25 00:01:15;;;;;;;26.17;16.65;;;9.10;84.10;;;;;;10861324;32;20062;-73
2022/11/25 00:07:17;;;;;;;26.10;19.60;;;9.10;84.20;;;;;;10867347;32;20027;-73
2022/11/25 00:13:19;;;;;;;21.35;17.30;;;9.10;84.20;;;;;;10867147;32;20023;-73
2022/11/25 00:19:21;;;;;;;22.33;17.20;;;9.20;84.50;;;;;;10862782;32;20039;-73
2022/11/25 00:25:23;;;;;;;19.77;17.50;;;9.20;84.60;;;;;;10866762;32;20339;-73
2022/11/25 00:31:28;;;;;;;21.80;17.75;;;9.20;84.60;;;;;;10866680;32;20050;-73
2022/11/25 00:37:31;;;;;;;15.68;12.68;;;9.20;84.50;;;;;;10862672;32;20031;-73
2022/11/25 00:49:53;;;;;;;19.73;17.25;;;9.10;84.30;;;;;;10866089;32;20024;-73
2022/11/25 00:56:11;;;;;;;20.05;15.63;;;9.10;84.40;;;;;;10865771;32;20407;-73
2022/11/25 01:02:15;;;;;;;17.83;15.50;;;9.00;84.30;;;;;;10865678;32;20028;-73
2022/11/25 01:08:18;;;;;;;18.58;15.43;;;8.80;84.30;;;;;;10865476;32;20425;-73
2022/11/25 01:14:21;;;;;;;17.85;13.15;;;8.80;84.90;;;;;;10853107;32;20027;-74
2022/11/25 01:20:24;;;;;;;17.45;12.75;;;9.00;85.00;;;;;;10865278;32;20030;-73
2022/11/25 01:26:26;;;;;;;18.40;15.02;;;9.00;84.70;;;;;;10864937;32;20028;-74
2022/11/25 01:32:28;;;;;;;16.12;13.68;;;9.10;84.90;;;;;;10851605;32;20058;-73
2022/11/25 01:38:31;;;;;;;18.45;14.35;;;9.00;84.70;;;;;;10864494;32;20437;-73
2022/11/25 01:44:35;;;;;;;16.90;13.02;;;8.90;84.70;;;;;;10864419;32;20046;-73
2022/11/25 01:50:38;;;;;;;15.30;12.63;;;8.90;84.60;;;;;;10860121;32;20090;-73
2022/11/25 01:56:48;;;;;;;14.45;10.95;;;8.90;84.50;;;;;;10864083;32;20408;-73
2022/11/25 02:02:53;;;;;;;12.88;10.13;;;8.90;84.70;;;;;;10864015;32;20051;-74
2022/11/25 02:09:03;;;;;;;15.30;10.75;;;8.90;84.60;;;;;;10863721;32;20058;-73
2022/11/25 02:15:06;;;;;;;16.25;11.85;;;8.90;84.80;;;;;;10864208;32;20015;-73
2022/11/25 02:21:08;;;;;;;14.75;10.45;;;8.80;84.70;;;;;;10863252;32;20332;-73
2022/11/25 02:27:10;;;;;;;13.13;11.57;;;8.70;84.70;;;;;;10862683;32;20392;-73
2022/11/25 02:33:13;;;;;;;16.15;10.10;;;8.80;85.20;;;;;;10849914;32;20040;-73
2022/11/25 02:39:18;;;;;;;15.55;11.90;;;8.90;85.10;;;;;;10862854;32;20027;-73
2022/11/25 02:45:30;;;;;;;13.27;10.23;;;8.90;85.10;;;;;;10862640;32;20032;-73
2022/11/25 02:51:34;;;;;;;14.65;10.25;;;8.80;85.00;;;;;;10849510;32;20054;-73
2022/11/25 02:57:36;;;;;;;16.52;9.73;;;8.70;85.00;;;;;;10862470;32;20399;-73
2022/11/25 03:03:38;;;;;;;12.80;9.35;;;8.50;85.20;;;;;;10862324;32;20057;-73
2022/11/25 03:09:42;;;;;;;12.10;8.27;;;8.40;85.40;;;;;;10862135;32;20407;-73
2022/11/25 03:15:46;;;;;;;10.93;7.87;;;8.40;85.30;;;;;;10861952;32;20028;-73
2022/11/25 03:21:48;;;;;;;10.73;7.90;;;8.20;85.30;;;;;;10861660;32;20036;-73
2022/11/25 03:27:50;;;;;;;11.85;8.10;;;8.20;85.70;;;;;;10861724;32;20023;-73
2022/11/25 03:33:54;;;;;;;14.65;11.52;;;8.30;85.60;;;;;;10861527;32;20028;-73
2022/11/25 03:39:56;;;;;;;13.05;9.23;;;8.50;85.70;;;;;;10867660;32;20472;-73
2022/11/25 03:45:58;;;;;;;10.27;8.43;;;8.70;85.80;;;;;;10867764;32;20031;-73
2022/11/25 03:52:30;;;;;;;10.27;8.68;;;8.60;85.40;;;;;;10867941;32;20024;-73
2022/11/25 03:58:33;;;;;;;11.70;8.20;;;8.40;85.30;;;;;;10867574;32;20458;-73
2022/11/25 04:04:35;;;;;;;12.10;8.07;;;8.20;85.70;;;;;;10867357;32;20043;-73
2022/11/25 04:10:37;;;;;;;15.50;11.23;;;8.20;85.90;;;;;;10867175;32;20067;-73
2022/11/25 04:16:40;;;;;;;12.95;9.23;;;8.20;85.60;;;;;;10866964;32;20066;-73
2022/11/25 04:22:42;;;;;;;11.20;8.65;;;8.40;85.50;;;;;;10866827;32;20069;-73
2022/11/25 04:28:45;;;;;;;12.70;9.43;;;8.20;85.20;;;;;;10866686;32;20066;-72
2022/11/25 04:34:48;;;;;;;11.50;8.43;;;7.90;85.60;;;;;;10866511;32;20055;-73
2022/11/25 04:40:50;;;;;;;11.07;8.73;;;8.00;85.80;;;;;;10866259;32;20386;-73
2022/11/25 04:46:53;;;;;;;13.00;8.95;;;8.20;85.80;;;;;;10865871;32;20051;-73
2022/11/25 04:52:55;;;;;;;9.70;7.18;;;8.30;86.00;;;;;;10866091;32;20024;-74
2022/11/25 05:05:19;;;;;;;11.07;7.95;;;8.30;86.20;;;;;;10861437;32;20046;-73
2022/11/25 05:11:21;;;;;;;11.18;7.70;;;8.30;86.00;;;;;;10865523;32;20032;-73
2022/11/25 05:17:29;;;;;;;11.15;8.48;;;8.10;86.00;;;;;;10865168;32;20035;-73
2022/11/25 05:23:33;;;;;;;10.23;7.90;;;7.90;86.30;;;;;;10864341;32;20036;-73
2022/11/25 05:29:37;;;;;;;9.43;7.03;;;7.90;86.10;;;;;;10864889;32;20028;-73
2022/11/25 05:35:39;;;;;;;10.13;7.43;;;7.80;86.20;;;;;;10864984;32;20023;-73
2022/11/25 05:41:42;;;;;;;9.73;6.80;;;7.90;86.20;;;;;;10864632;32;20032;-73
2022/11/25 05:47:44;;;;;;;10.18;7.37;;;8.10;86.10;;;;;;10847097;32;20388;-73
2022/11/25 05:53:49;;;;;;;12.73;9.80;;;8.10;86.10;;;;;;10864162;32;20386;-73
2022/11/25 05:59:52;;;;;;;8.40;7.07;;;8.40;86.10;;;;;;10859010;32;20062;-73
2022/11/25 06:05:56;;;;;;;10.60;9.27;;;8.60;85.70;;;;;;10864002;32;20328;-73
2022/11/25 06:11:59;;;;;;;12.20;9.50;;;8.80;85.80;;;;;;10863652;32;20031;-73
2022/11/25 06:18:03;;;;;;;16.10;11.32;;;8.80;85.30;;;;;;10856377;32;20027;-73
2022/11/25 06:24:07;;;;;;;15.45;12.57;;;8.50;85.60;;;;;;10823840;32;20064;-73
2022/11/25 06:30:12;;;;;;;16.65;13.10;;;8.40;85.90;;;;;;10826149;32;20024;-73
2022/11/25 06:36:19;;;;;;;13.80;11.07;;;8.20;86.30;;;;;;10825892;32;20058;-73
2022/11/25 06:42:21;;;;;;;12.80;8.82;;;8.10;86.30;;;;;;10823270;32;20031;-75
2022/11/25 06:48:23;;;;;;;13.15;9.98;;;8.10;86.10;;;;;;10080984;33;22585944;-75
2022/11/25 06:54:25;;;;;;;12.40;9.60;;;8.20;86.60;;;;;;10712752;33;20309;-75
2022/11/25 07:00:28;;;;;;;10.57;7.12;;;8.40;86.00;;;;;;10756455;32;20089;-75
2022/11/25 07:06:31;;;;;;;10.77;8.60;;;8.50;86.30;;;;;;10886155;32;20019;-75
2022/11/25 07:12:33;;;;;;;13.27;9.65;;;8.80;86.80;;;;;;10838600;32;20033;-74
2022/11/25 07:18:37;;;;;;;11.82;8.68;;;9.00;86.60;;;;;;10751452;32;20051;-75
2022/11/25 07:24:39;;;;;;;10.93;9.00;;;9.10;86.00;;;;;;10750932;32;20045;-75
2022/11/25 07:30:41;;;;;;;10.27;8.07;;;9.20;86.30;;;;;;10750565;33;20013;-75
2022/11/25 07:36:45;;;;;;;12.75;10.00;;;9.40;86.00;;;;;;10748137;33;20055;-75
2022/11/25 07:42:47;;;;;;;12.98;9.75;;;9.30;85.80;;;;;;10750931;33;20405;-76
2022/11/25 07:48:53;;;;;;;17.83;10.70;;;9.40;85.90;;;;;;10748195;33;20431;-75
2022/11/25 07:54:55;;;;;;;12.60;9.13;;;9.60;85.60;;;;;;10782482;33;20024;-75
2022/11/25 08:01:04;;;;;;;11.88;9.02;;;9.70;85.50;;;;;;10786910;33;20464;-75
2022/11/25 08:07:06;;;;;;;12.10;9.85;;;10.00;85.80;;;;;;10786688;33;20028;-75
2022/11/25 08:13:16;;;;;;;10.27;7.28;;;10.30;85.70;;;;;;10786698;33;20037;-75
2022/11/25 08:19:18;;;;;;;12.57;8.07;;;10.50;85.70;;;;;;10786437;33;20347;-75
2022/11/25 08:25:28;;;;;;;12.52;8.02;;;10.70;85.90;;;;;;10790532;33;20046;-75
2022/11/25 08:31:33;;;;;;;8.35;5.90;;;10.80;86.20;;;;;;10792710;33;20047;-75
2022/11/25 08:37:35;;;;;;;9.85;6.55;;;10.80;86.30;;;;;;10779257;33;20028;-75
2022/11/25 08:43:38;;;;;;;8.15;5.72;;;10.80;86.80;;;;;;10791877;33;20055;-75
2022/11/25 08:49:40;;;;;;;9.05;6.60;;;10.70;87.00;;;;;;10778934;33;20062;-75
2022/11/25 08:55:43;;;;;;;7.82;4.32;;;10.80;87.20;;;;;;10791513;33;20047;-75
2022/11/25 09:01:45;;;;;;;6.37;3.75;;;10.70;87.20;;;;;;10788448;33;20024;-75
2022/11/25 09:07:48;;;;;;;7.28;5.05;;;10.70;87.60;;;;;;10791660;33;20481;-75
2022/11/25 09:13:51;;;;;;;6.03;2.87;;;10.70;87.60;;;;;;10778493;33;20107;-75
2022/11/25 09:19:55;;;;;;;5.65;3.83;;;10.70;87.90;;;;;;10791191;33;20050;-75
2022/11/25 09:25:58;;;;;;;4.62;3.05;;;10.70;88.10;;;;;;10790977;33;20117;-74
2022/11/25 09:32:00;;;;;;;4.80;2.90;;;10.80;88.10;;;;;;10790674;33;20024;-75
2022/11/25 09:38:02;;;;;;;6.65;4.32;;;10.80;88.40;;;;;;10790347;33;20407;-75
2022/11/25 09:51:23;;;;;;;7.12;4.85;;;11.00;88.40;;;;;;10787186;33;20043;-75
2022/11/25 09:57:50;;;;;;;3.95;2.47;;;11.10;88.40;;;;;;10789991;33;20020;-75
2022/11/25 10:03:57;;;;;;;5.53;3.20;;;11.20;88.40;;;;;;10784686;32;20054;-75
2022/11/25 10:10:04;;;;;;;5.37;3.47;;;11.20;88.40;;;;;;10747043;32;20454;-75
2022/11/25 10:16:27;;;;;;;7.43;4.80;;;11.40;88.40;;;;;;10832106;32;20032;-75
2022/11/25 10:22:40;;;;;;;7.18;4.82;;;11.50;88.30;;;;;;10835027;32;20047;-75
2022/11/25 10:29:12;;;;;;;8.15;4.32;;;11.60;88.00;;;;;;10788085;33;20050;-75
2022/11/25 10:35:29;;;;;;;4.12;2.50;;;11.60;88.10;;;;;;10839149;32;20302;-75
2022/11/25 10:41:37;;;;;;;7.30;4.95;;;11.70;88.30;;;;;;10783959;33;20298;-75
2022/11/25 10:47:58;;;;;;;5.68;3.53;;;11.80;88.20;;;;;;10873267;32;20022;-75
2022/11/25 10:54:12;;;;;;;8.40;5.78;;;11.80;88.10;;;;;;10980137;32;20030;-75
2022/11/25 11:00:36;;;;;;;8.60;4.10;;;11.80;88.10;;;;;;10966062;32;20031;-75
2022/11/25 11:06:41;;;;;;;5.20;3.60;;;11.80;88.20;;;;;;10979501;32;20050;-75
2022/11/25 11:13:00;;;;;;;4.85;2.90;;;11.80;88.10;;;;;;10977827;32;20061;-75
2022/11/25 11:19:04;;;;;;;4.47;3.07;;;11.80;88.30;;;;;;10979815;32;20045;-75
2022/11/25 11:25:25;;;;;;;10.52;3.85;;;11.90;88.30;;;;;;10979100;32;20114;-75
2022/11/25 11:31:35;;;;;;;8.82;5.57;;;12.00;88.50;;;;;;10979187;32;20027;-75
2022/11/25 11:37:46;;;;;;;6.22;3.40;;;12.20;88.50;;;;;;10979077;32;20394;-75
2022/11/25 11:44:41;;;;;;;4.82;2.97;;;12.30;88.20;;;;;;10975018;32;20355;-75
2022/11/25 11:50:50;;;;;;;5.75;4.12;;;12.60;87.80;;;;;;10776900;32;20070;-75
2022/11/25 11:57:34;;;;;;;6.47;4.05;;;12.80;87.50;;;;;;10789501;32;20036;-75
2022/11/25 12:04:07;;;;;;;7.05;4.22;;;13.00;87.30;;;;;;10788756;32;20075;-75
2022/11/25 12:10:24;;;;;;;7.10;3.58;;;13.20;87.20;;;;;;10777185;33;20097;-75
2022/11/25 12:16:28;;;;;;;5.30;3.12;;;13.20;86.70;;;;;;10768867;33;20031;-75
2022/11/25 12:22:37;;;;;;;4.40;3.35;;;13.20;86.70;;;;;;10803184;32;20043;-75
2022/11/25 12:28:53;;;;;;;5.82;4.35;;;13.20;87.10;;;;;;10947698;32;20394;-75
2022/11/25 12:35:19;;;;;;;5.20;3.30;;;13.10;87.40;;;;;;10947437;32;20309;-75
2022/11/25 12:41:57;;;;;;;8.30;4.80;;;13.20;87.50;;;;;;10947089;32;20050;-75
2022/11/25 12:48:00;;;;;;;6.20;3.92;;;13.20;87.50;;;;;;10887518;32;20048;-75
2022/11/25 12:54:38;;;;;;;7.10;4.62;;;13.10;87.70;;;;;;10815739;33;20031;-75
2022/11/25 13:01:15;;;;;;;6.85;4.47;;;13.00;87.80;;;;;;10828484;33;20320;-75
2022/11/25 13:07:47;;;;;;;6.65;4.03;;;13.00;88.10;;;;;;10828871;32;20024;-75
2022/11/25 13:13:57;;;;;;;5.62;3.87;;;13.10;88.10;;;;;;10828244;33;20060;-75
2022/11/25 13:20:27;;;;;;;4.43;3.20;;;13.10;88.20;;;;;;10828093;33;20442;-74
2022/11/25 13:26:44;;;;;;;3.60;2.87;;;13.10;88.30;;;;;;10827854;33;20094;-74
2022/11/25 13:32:47;;;;;;;4.65;2.95;;;13.10;88.40;;;;;;10827688;33;20061;-74
2022/11/25 13:38:50;;;;;;;3.45;2.05;;;13.00;88.50;;;;;;10827455;33;20094;-75
2022/11/25 13:44:57;;;;;;;5.10;2.90;;;13.00;88.70;;;;;;10823014;33;20073;-74
2022/11/25 13:51:17;;;;;;;4.43;2.72;;;13.10;88.70;;;;;;10827055;33;20047;-75
2022/11/25 13:57:37;;;;;;;7.12;4.53;;;13.10;88.70;;;;;;10822749;33;20458;-74
2022/11/25 14:03:45;;;;;;;5.28;3.10;;;13.10;89.00;;;;;;10826725;33;20028;-74
2022/11/25 14:10:07;;;;;;;3.62;2.72;;;13.30;88.70;;;;;;10824397;33;20059;-74
2022/11/25 14:16:42;;;;;;;4.25;3.28;;;13.40;88.50;;;;;;10775966;33;20353;-74
2022/11/25 14:23:02;;;;;;;5.95;3.33;;;13.40;88.60;;;;;;10788624;33;20376;-75
2022/11/25 14:29:19;;;;;;;4.85;3.62;;;13.30;88.90;;;;;;10789185;33;20066;-74
2022/11/25 14:35:41;;;;;;;4.93;3.55;;;13.20;89.30;;;;;;10787071;33;20028;-74
2022/11/25 14:41:56;;;;;;;5.28;4.10;;;13.20;89.40;;;;;;10785696;33;20447;-74
2022/11/25 14:48:23;;;;;;;6.47;4.00;;;13.00;89.50;;;;;;10785650;27;20068;-74
2022/11/25 14:54:25;;;;;;;7.15;4.50;;;12.90;89.80;;;;;;10775063;33;20389;-74
2022/11/25 15:00:28;;;;;;;8.98;3.37;;;12.80;90.10;;;;;;10788215;33;20063;-74
2022/11/25 15:06:39;;;;;;;6.93;5.30;;;12.70;90.30;;;;;;10788261;33;20028;-74
2022/11/25 15:12:41;;;;;;;7.43;5.72;;;12.60;90.50;;;;;;10788156;33;20458;-74
2022/11/25 15:18:47;;;;;;;8.77;6.37;;;12.60;90.60;;;;;;10787781;32;20376;-74
2022/11/25 15:24:52;;;;;;;7.47;5.15;;;12.50;90.70;;;;;;10787893;33;20470;-74
2022/11/25 15:31:26;;;;;;;8.65;6.22;;;12.50;90.80;;;;;;10788006;33;20059;-74
2022/11/25 15:37:29;;;;;;;8.80;6.53;;;12.40;90.80;;;;;;10794212;33;20114;-75
2022/11/25 15:43:33;;;;;;;10.23;7.75;;;12.30;91.00;;;;;;10794088;32;20421;-74
2022/11/25 15:49:35;;;;;;;9.32;7.47;;;12.20;91.30;;;;;;10793881;32;20024;-74
2022/11/25 15:55:39;;;;;;;8.27;6.95;;;12.20;91.30;;;;;;10790382;33;20051;-75
2022/11/25 16:01:42;;;;;;;9.45;7.50;;;12.20;91.30;;;;;;10793367;33;20062;-75
2022/11/25 16:07:50;;;;;;;10.63;7.87;;;12.10;91.50;;;;;;10779961;33;20032;-74
2022/11/25 16:13:52;;;;;;;8.90;6.90;;;12.00;91.60;;;;;;10793142;33;20043;-75
2022/11/25 16:19:54;;;;;;;10.13;7.12;;;12.00;91.60;;;;;;10792967;32;20025;-75
2022/11/25 16:26:01;;;;;;;10.55;8.63;;;11.90;91.50;;;;;;10789653;32;20051;-74
2022/11/25 16:32:20;;;;;;;10.63;6.90;;;11.90;91.50;;;;;;10779657;33;20032;-74
2022/11/25 16:38:22;;;;;;;9.83;7.57;;;12.00;91.20;;;;;;10792593;32;20392;-75
2022/11/25 16:44:28;;;;;;;9.38;7.12;;;12.00;91.10;;;;;;10790664;33;20155;-75
2022/11/25 16:50:30;;;;;;;12.70;9.32;;;12.00;91.00;;;;;;10791047;33;20067;-75
2022/11/25 16:56:36;;;;;;;11.93;9.57;;;12.00;90.70;;;;;;10791932;33;20020;-75
2022/11/25 17:02:38;;;;;;;11.35;8.18;;;12.00;90.60;;;;;;10791813;33;20435;-73
2022/11/25 17:08:41;;;;;;;11.20;7.80;;;12.00;90.60;;;;;;10792101;32;20310;-72
2022/11/25 17:14:45;;;;;;;13.05;10.32;;;11.90;90.20;;;;;;10791640;33;20047;-73
2022/11/25 17:20:47;;;;;;;12.32;9.10;;;11.80;90.10;;;;;;10784342;33;20067;-72
2022/11/25 17:27:20;;;;;;;17.45;11.73;;;11.70;90.10;;;;;;10778674;32;20106;-74
2022/11/25 17:33:23;;;;;;;14.55;11.05;;;11.70;89.90;;;;;;10768124;32;20209;-74
2022/11/25 17:39:25;;;;;;;14.50;11.43;;;11.70;89.90;;;;;;10766605;32;20070;-74
2022/11/25 17:45:28;;;;;;;11.00;9.82;;;11.60;89.80;;;;;;10790598;32;20046;-74
2022/11/25 17:51:30;;;;;;;12.18;9.50;;;11.70;89.60;;;;;;10777465;32;20434;-74
2022/11/25 17:57:33;;;;;;;12.20;8.68;;;11.60;89.30;;;;;;10790489;32;20504;-74
2022/11/25 18:03:35;;;;;;;12.80;10.43;;;11.50;89.20;;;;;;10788124;33;20070;-74
2022/11/25 18:09:38;;;;;;;12.73;10.13;;;11.50;88.90;;;;;;10789801;33;20023;-75
2022/11/25 18:15:40;;;;;;;11.68;8.80;;;11.40;88.80;;;;;;10789475;33;20400;-74
2022/11/25 18:21:42;;;;;;;13.30;10.30;;;11.40;88.70;;;;;;10786038;33;20033;-75
2022/11/25 18:27:45;;;;;;;13.77;10.45;;;11.20;88.60;;;;;;10789343;33;20033;-75
2022/11/25 18:33:47;;;;;;;19.17;12.35;;;11.20;88.70;;;;;;10776014;33;20066;-75
2022/11/25 18:39:49;;;;;;;22.15;12.80;;;11.30;88.50;;;;;;10775908;32;20094;-75
2022/11/25 18:45:53;;;;;;;17.27;12.77;;;11.20;88.40;;;;;;10788114;33;20047;-75
2022/11/25 18:51:57;;;;;;;19.35;13.98;;;11.20;88.50;;;;;;10788152;32;20328;-75
2022/11/25 18:58:00;;;;;;;21.48;16.20;;;11.20;88.50;;;;;;10788200;32;20055;-75
2022/11/25 19:04:03;;;;;;;21.33;16.15;;;11.20;88.40;;;;;;10787377;33;20024;-75
2022/11/25 19:10:06;;;;;;;15.02;13.18;;;11.10;88.10;;;;;;10787044;33;20028;-75
2022/11/25 19:16:14;;;;;;;17.62;13.85;;;11.00;87.90;;;;;;10787433;33;20345;-75
2022/11/25 19:22:17;;;;;;;17.58;12.50;;;10.90;88.00;;;;;;10787440;32;20032;-75
2022/11/25 19:28:20;;;;;;;14.95;10.68;;;11.00;88.10;;;;;;10787346;33;20047;-75
2022/11/25 19:34:36;;;;;;;14.15;10.63;;;10.90;88.00;;;;;;10787219;33;20282;-75
2022/11/25 19:40:39;;;;;;;18.87;14.93;;;11.00;87.80;;;;;;10782708;33;20058;-75
2022/11/25 19:46:47;;;;;;;20.40;14.80;;;10.80;87.70;;;;;;10782400;33;20393;-75
2022/11/25 19:52:50;;;;;;;21.62;14.45;;;10.80;87.70;;;;;;10786220;33;20373;-75
2022/11/25 19:58:53;;;;;;;20.23;12.35;;;10.90;87.70;;;;;;10785075;32;20063;-75
2022/11/25 20:04:56;;;;;;;18.65;15.43;;;10.90;87.70;;;;;;10786423;33;20016;-75
2022/11/25 20:10:58;;;;;;;17.95;14.18;;;10.80;87.60;;;;;;10786132;33;20074;-75
2022/11/25 20:17:10;;;;;;;15.07;10.95;;;10.80;87.60;;;;;;10786283;32;20035;-75
2022/11/25 20:23:27;;;;;;;14.87;12.45;;;10.80;87.50;;;;;;10792284;33;20185;-75
2022/11/25 20:29:30;;;;;;;19.75;14.87;;;10.90;87.20;;;;;;10779245;33;20052;-75
2022/11/25 20:35:32;;;;;;;15.73;11.77;;;11.00;87.20;;;;;;10777367;33;20051;-75
2022/11/25 20:41:34;;;;;;;18.67;11.73;;;11.00;86.90;;;;;;10788059;33;20347;-75
2022/11/25 20:47:36;;;;;;;17.80;12.05;;;11.00;86.80;;;;;;10791935;32;20047;-75
2022/11/25 20:53:43;;;;;;;19.02;13.62;;;11.00;86.70;;;;;;10774519;33;20333;-75
2022/11/25 20:59:45;;;;;;;19.55;13.98;;;10.80;86.60;;;;;;10791253;32;20054;-75
2022/11/25 21:05:52;;;;;;;22.13;14.55;;;10.80;86.70;;;;;;10791201;33;20027;-75
2022/11/25 21:11:54;;;;;;;21.95;16.00;;;11.00;87.10;;;;;;10791231;33;20047;-75
2022/11/25 21:17:58;;;;;;;20.58;13.35;;;11.00;86.70;;;;;;10791144;33;20051;-75
2022/11/25 21:24:29;;;;;;;14.43;11.55;;;10.90;86.50;;;;;;10790428;33;20248;-75
2022/11/25 21:30:31;;;;;;;18.55;12.48;;;10.50;86.50;;;;;;10605724;33;20377;-76
2022/11/25 21:36:34;;;;;;;16.40;13.10;;;10.30;87.10;;;;;;10606316;33;20027;-75
2022/11/25 21:42:36;;;;;;;24.48;16.20;;;10.40;87.10;;;;;;10603401;33;20331;-75
2022/11/25 21:48:39;;;;;;;24.85;13.38;;;10.50;86.80;;;;;;10715586;33;20028;-75
2022/11/25 21:54:41;;;;;;;20.40;13.27;;;10.70;86.50;;;;;;10792867;33;20071;-76
2022/11/25 22:01:09;;;;;;;17.20;11.77;;;10.70;86.30;;;;;;10792570;33;20067;-75
2022/11/25 22:07:11;;;;;;;16.67;11.85;;;10.80;86.40;;;;;;10759709;33;20113;-76
2022/11/25 22:13:43;;;;;;;14.25;10.23;;;10.60;86.20;;;;;;10753462;33;20468;-75
2022/11/25 22:19:46;;;;;;;21.73;13.50;;;10.20;86.70;;;;;;10642028;33;20072;-75
2022/11/25 22:25:49;;;;;;;20.37;12.82;;;10.40;86.90;;;;;;10640982;33;20157;-75
2022/11/25 22:31:52;;;;;;;26.95;16.50;;;10.40;86.60;;;;;;10628542;33;20030;-73
2022/11/25 22:37:54;;;;;;;30.48;16.33;;;10.50;86.40;;;;;;10640644;33;20299;-73
2022/11/25 22:43:56;;;;;;;22.77;14.75;;;10.30;86.40;;;;;;10640972;33;20030;-73
2022/11/25 22:50:01;;;;;;;23.73;12.18;;;10.30;86.50;;;;;;10701745;27;20090;-73
2022/11/25 22:56:17;;;;;;;14.95;10.07;;;10.30;86.60;;;;;;10744742;33;20381;-73
2022/11/25 23:02:22;;;;;;;19.20;11.82;;;10.40;86.50;;;;;;10752182;32;20067;-74
2022/11/25 23:08:27;;;;;;;16.10;10.40;;;10.30;86.50;;;;;;10752233;32;20046;-73
2022/11/25 23:14:56;;;;;;;11.60;9.05;;;10.30;86.60;;;;;;10751989;33;20314;-73
2022/11/25 23:20:58;;;;;;;11.88;8.10;;;10.30;86.40;;;;;;10751704;33;20036;-73
2022/11/25 23:27:00;;;;;;;11.10;8.55;;;10.40;86.30;;;;;;10751756;33;20095;-73
2022/11/25 23:33:04;;;;;;;10.55;6.62;;;10.40;86.10;;;;;;10738718;32;20317;-73
2022/11/25 23:39:21;;;;;;;10.93;8.02;;;10.40;86.00;;;;;;10738497;33;20291;-73
2022/11/25 23:45:25;;;;;;;11.57;9.85;;;10.30;85.70;;;;;;10751202;33;20337;-74
2022/11/25 23:51:29;;;;;;;12.50;9.35;;;10.20;85.70;;;;;;10738161;33;20029;-74
2022/11/25 23:57:32;;;;;;;10.23;7.80;;;10.40;86.10;;;;;;10757603;33;20056;-73
